sensor_id;sensor_type;location;lat;lon;timestamp;pressure;altitude;pressure_sealevel;temperature;humidity
38400;BME280;24180;42.676;23.320;2022-07-23T00:00:49;95047.50;;;21.41;100.00
38400;BME280;24180;42.676;23.320;2022-07-23T00:03:15;95049.91;;;21.36;100.00
38400;BME280;24180;42.676;23.320;2022-07-23T00:05:40;95050.31;;;21.33;100.00
38400;BME280;24180;42.676;23.320;2022-07-23T00:08:07;95053.78;;;21.34;100.00
38400;BME280;24180;42.676;23.320;2022-07-23T00:10:33;95047.06;;;21.31;100.00
38400;BME280;24180;42.676;23.320;2022-07-23T00:12:59;95052.94;;;21.27;100.00
38400;BME280;24180;42.676;23.320;2022-07-23T00:15:24;95051.13;;;21.21;100.00
38400;BME280;24180;42.676;23.320;2022-07-23T00:17:50;95052.13;;;21.13;100.00
38400;BME280;24180;42.676;23.320;2022-07-23T00:20:16;95053.75;;;21.14;100.00
38400;BME280;24180;42.676;23.320;2022-07-23T00:22:52;95057.81;;;21.17;100.00
38400;BME280;24180;42.676;23.320;2022-07-23T00:25:19;95056.16;;;21.09;100.00
38400;BME280;24180;42.676;23.320;2022-07-23T00:27:45;95066.31;;;21.12;100.00
38400;BME280;24180;42.676;23.320;2022-07-23T00:30:11;95055.75;;;21.06;100.00
38400;BME280;24180;42.676;23.320;2022-07-23T00:32:50;95070.72;;;21.05;100.00
38400;BME280;24180;42.676;23.320;2022-07-23T00:35:18;95071.31;;;21.00;100.00
38400;BME280;24180;42.676;23.320;2022-07-23T00:37:44;95060.78;;;20.94;100.00
38400;BME280;24180;42.676;23.320;2022-07-23T00:40:10;95061.38;;;20.96;100.00
38400;BME280;24180;42.676;23.320;2022-07-23T00:42:36;95070.28;;;20.88;100.00
38400;BME280;24180;42.676;23.320;2022-07-23T00:45:03;95056.31;;;20.88;100.00
38400;BME280;24180;42.676;23.320;2022-07-23T00:47:28;95071.50;;;20.92;100.00
38400;BME280;24180;42.676;23.320;2022-07-23T00:49:54;95069.06;;;20.84;100.00
38400;BME280;24180;42.676;23.320;2022-07-23T00:52:20;95061.34;;;20.83;100.00
38400;BME280;24180;42.676;23.320;2022-07-23T00:54:46;95067.00;;;20.80;100.00
38400;BME280;24180;42.676;23.320;2022-07-23T00:57:12;95062.16;;;20.70;100.00
38400;BME280;24180;42.676;23.320;2022-07-23T00:59:41;95064.97;;;20.75;100.00
38400;BME280;24180;42.676;23.320;2022-07-23T01:02:07;95065.38;;;20.79;100.00
38400;BME280;24180;42.676;23.320;2022-07-23T01:04:32;95057.66;;;20.71;100.00
38400;BME280;24180;42.676;23.320;2022-07-23T01:06:58;95061.34;;;20.70;100.00
38400;BME280;24180;42.676;23.320;2022-07-23T01:09:24;95061.34;;;20.70;100.00
38400;BME280;24180;42.676;23.320;2022-07-23T01:11:50;95059.25;;;20.59;100.00
38400;BME280;24180;42.676;23.320;2022-07-23T01:14:18;95055.78;;;20.51;100.00
38400;BME280;24180;42.676;23.320;2022-07-23T01:16:46;95070.16;;;20.49;100.00
38400;BME280;24180;42.676;23.320;2022-07-23T01:19:12;95059.41;;;20.50;100.00
38400;BME280;24180;42.676;23.320;2022-07-23T01:21:43;95062.44;;;20.41;100.00
38400;BME280;24180;42.676;23.320;2022-07-23T01:24:09;95054.63;;;20.26;100.00
38400;BME280;24180;42.676;23.320;2022-07-23T01:26:36;95056.19;;;20.14;100.00
38400;BME280;24180;42.676;23.320;2022-07-23T01:29:02;95057.81;;;20.15;100.00
38400;BME280;24180;42.676;23.320;2022-07-23T01:31:28;95043.97;;;19.93;100.00
38400;BME280;24180;42.676;23.320;2022-07-23T01:33:54;95055.31;;;19.94;100.00
38400;BME280;24180;42.676;23.320;2022-07-23T01:36:20;95052.88;;;19.99;100.00
38400;BME280;24180;42.676;23.320;2022-07-23T01:38:45;95036.34;;;20.05;100.00
38400;BME280;24180;42.676;23.320;2022-07-23T01:41:11;95046.03;;;19.98;100.00
38400;BME280;24180;42.676;23.320;2022-07-23T01:43:36;95042.72;;;19.89;100.00
38400;BME280;24180;42.676;23.320;2022-07-23T01:46:02;95044.00;;;20.00;100.00
38400;BME280;24180;42.676;23.320;2022-07-23T01:48:27;95042.34;;;19.92;100.00
38400;BME280;24180;42.676;23.320;2022-07-23T01:50:53;95051.75;;;20.15;100.00
38400;BME280;24180;42.676;23.320;2022-07-23T01:53:18;95039.56;;;20.07;100.00
38400;BME280;24180;42.676;23.320;2022-07-23T01:55:44;95055.91;;;19.96;100.00
38400;BME280;24180;42.676;23.320;2022-07-23T01:58:09;95054.66;;;19.92;100.00
38400;BME280;24180;42.676;23.320;2022-07-23T02:00:35;95052.19;;;19.84;100.00
38400;BME280;24180;42.676;23.320;2022-07-23T02:03:01;95054.78;;;19.77;100.00
38400;BME280;24180;42.676;23.320;2022-07-23T02:05:27;95051.28;;;19.70;100.00
38400;BME280;24180;42.676;23.320;2022-07-23T02:07:54;95051.09;;;19.72;100.00
38400;BME280;24180;42.676;23.320;2022-07-23T02:10:20;95059.00;;;19.78;100.00
38400;BME280;24180;42.676;23.320;2022-07-23T02:12:46;95057.19;;;19.79;100.00
38400;BME280;24180;42.676;23.320;2022-07-23T02:15:11;95048.88;;;19.69;100.00
38400;BME280;24180;42.676;23.320;2022-07-23T02:17:37;95050.50;;;19.70;100.00
38400;BME280;24180;42.676;23.320;2022-07-23T02:20:04;95057.59;;;19.76;100.00
38400;BME280;24180;42.676;23.320;2022-07-23T02:22:30;95054.44;;;19.87;100.00
38400;BME280;24180;42.676;23.320;2022-07-23T02:24:55;95051.75;;;19.74;100.00
38400;BME280;24180;42.676;23.320;2022-07-23T02:27:21;95059.97;;;19.71;100.00
38400;BME280;24180;42.676;23.320;2022-07-23T02:29:47;95051.91;;;19.72;100.00
38400;BME280;24180;42.676;23.320;2022-07-23T02:32:12;95057.13;;;19.66;100.00
38400;BME280;24180;42.676;23.320;2022-07-23T02:34:38;95050.25;;;19.65;100.00
38400;BME280;24180;42.676;23.320;2022-07-23T02:37:03;95056.09;;;19.67;100.00
38400;BME280;24180;42.676;23.320;2022-07-23T02:39:29;95053.88;;;19.63;100.00
38400;BME280;24180;42.676;23.320;2022-07-23T02:41:54;95054.38;;;19.74;100.00
38400;BME280;24180;42.676;23.320;2022-07-23T02:44:20;95069.06;;;19.68;100.00
38400;BME280;24180;42.676;23.320;2022-07-23T02:46:45;95062.44;;;19.72;100.00
38400;BME280;24180;42.676;23.320;2022-07-23T02:49:11;95059.16;;;19.70;100.00
38400;BME280;24180;42.676;23.320;2022-07-23T02:51:36;95068.88;;;19.70;100.00
38400;BME280;24180;42.676;23.320;2022-07-23T02:54:03;95068.00;;;19.62;100.00
38400;BME280;24180;42.676;23.320;2022-07-23T02:56:28;95076.66;;;19.56;100.00
38400;BME280;24180;42.676;23.320;2022-07-23T02:59:12;95073.78;;;19.51;100.00
38400;BME280;24180;42.676;23.320;2022-07-23T03:01:38;95081.84;;;19.50;100.00
38400;BME280;24180;42.676;23.320;2022-07-23T03:04:04;95084.16;;;19.38;100.00
38400;BME280;24180;42.676;23.320;2022-07-23T03:06:29;95076.88;;;19.34;100.00
38400;BME280;24180;42.676;23.320;2022-07-23T03:08:55;95079.78;;;19.24;100.00
38400;BME280;24180;42.676;23.320;2022-07-23T03:11:20;95072.47;;;19.20;100.00
38400;BME280;24180;42.676;23.320;2022-07-23T03:13:46;95086.59;;;19.18;100.00
38400;BME280;24180;42.676;23.320;2022-07-23T03:16:11;95094.91;;;19.22;100.00
38400;BME280;24180;42.676;23.320;2022-07-23T03:18:36;95096.50;;;19.16;100.00
38400;BME280;24180;42.676;23.320;2022-07-23T03:21:02;95094.81;;;19.09;100.00
38400;BME280;24180;42.676;23.320;2022-07-23T03:23:28;95095.41;;;19.11;100.00
38400;BME280;24180;42.676;23.320;2022-07-23T03:25:53;95102.28;;;19.12;100.00
38400;BME280;24180;42.676;23.320;2022-07-23T03:28:19;95105.31;;;19.09;100.00
38400;BME280;24180;42.676;23.320;2022-07-23T03:30:47;95100.41;;;19.06;100.00
38400;BME280;24180;42.676;23.320;2022-07-23T03:33:17;95100.22;;;19.07;100.00
38400;BME280;24180;42.676;23.320;2022-07-23T03:35:43;95105.09;;;19.10;100.00
38400;BME280;24180;42.676;23.320;2022-07-23T03:38:09;95108.53;;;19.11;100.00
38400;BME280;24180;42.676;23.320;2022-07-23T03:40:35;95114.06;;;19.16;100.00
38400;BME280;24180;42.676;23.320;2022-07-23T03:43:00;95113.66;;;19.19;100.00
38400;BME280;24180;42.676;23.320;2022-07-23T03:45:26;95108.97;;;19.14;100.00
38400;BME280;24180;42.676;23.320;2022-07-23T03:47:52;95109.41;;;19.18;100.00
38400;BME280;24180;42.676;23.320;2022-07-23T03:50:17;95118.19;;;19.25;100.00
38400;BME280;24180;42.676;23.320;2022-07-23T03:52:43;95087.41;;;19.19;100.00
38400;BME280;24180;42.676;23.320;2022-07-23T03:55:08;95113.38;;;19.29;100.00
38400;BME280;24180;42.676;23.320;2022-07-23T03:57:34;95110.06;;;19.20;100.00
38400;BME280;24180;42.676;23.320;2022-07-23T04:00:02;95111.72;;;19.28;100.00
38400;BME280;24180;42.676;23.320;2022-07-23T04:02:28;95105.66;;;19.27;100.00
38400;BME280;24180;42.676;23.320;2022-07-23T04:04:53;95104.13;;;19.33;100.00
38400;BME280;24180;42.676;23.320;2022-07-23T04:07:19;95112.94;;;19.46;100.00
38400;BME280;24180;42.676;23.320;2022-07-23T04:09:44;95112.22;;;19.59;100.00
38400;BME280;24180;42.676;23.320;2022-07-23T04:12:10;95107.06;;;19.66;100.00
38400;BME280;24180;42.676;23.320;2022-07-23T04:14:35;95114.56;;;19.69;100.00
38400;BME280;24180;42.676;23.320;2022-07-23T04:17:01;95113.56;;;19.70;100.00
38400;BME280;24180;42.676;23.320;2022-07-23T04:19:27;95106.53;;;19.77;100.00
38400;BME280;24180;42.676;23.320;2022-07-23T04:21:53;95109.00;;;19.85;100.00
38400;BME280;24180;42.676;23.320;2022-07-23T04:24:19;95114.84;;;19.80;100.00
38400;BME280;24180;42.676;23.320;2022-07-23T04:26:45;95111.41;;;19.80;100.00
38400;BME280;24180;42.676;23.320;2022-07-23T04:29:10;95120.75;;;19.89;100.00
38400;BME280;24180;42.676;23.320;2022-07-23T04:31:36;95117.03;;;20.04;100.00
38400;BME280;24180;42.676;23.320;2022-07-23T04:34:02;95121.31;;;20.12;100.00
38400;BME280;24180;42.676;23.320;2022-07-23T04:36:27;95113.03;;;20.15;100.00
38400;BME280;24180;42.676;23.320;2022-07-23T04:38:54;95106.16;;;20.14;100.00
38400;BME280;24180;42.676;23.320;2022-07-23T04:41:20;95109.22;;;20.18;100.00
38400;BME280;24180;42.676;23.320;2022-07-23T04:43:45;95126.97;;;20.43;100.00
38400;BME280;24180;42.676;23.320;2022-07-23T04:46:12;95123.97;;;20.46;100.00
38400;BME280;24180;42.676;23.320;2022-07-23T04:48:39;95132.09;;;20.51;100.00
38400;BME280;24180;42.676;23.320;2022-07-23T04:51:06;95123.44;;;20.58;100.00
38400;BME280;24180;42.676;23.320;2022-07-23T04:53:32;95113.06;;;20.49;100.00
38400;BME280;24180;42.676;23.320;2022-07-23T04:55:57;95133.97;;;20.71;100.00
38400;BME280;24180;42.676;23.320;2022-07-23T04:58:23;95132.22;;;20.78;100.00
38400;BME280;24180;42.676;23.320;2022-07-23T05:00:48;95129.38;;;20.79;100.00
38400;BME280;24180;42.676;23.320;2022-07-23T05:03:14;95136.91;;;20.95;100.00
38400;BME280;24180;42.676;23.320;2022-07-23T05:05:39;95129.06;;;21.02;100.00
38400;BME280;24180;42.676;23.320;2022-07-23T05:08:05;95125.88;;;21.13;100.00
38400;BME280;24180;42.676;23.320;2022-07-23T05:10:31;95124.47;;;21.17;100.00
38400;BME280;24180;42.676;23.320;2022-07-23T05:12:56;95125.91;;;21.26;100.00
38400;BME280;24180;42.676;23.320;2022-07-23T05:15:23;95122.28;;;21.34;100.00
38400;BME280;24180;42.676;23.320;2022-07-23T05:17:50;95129.75;;;21.43;100.00
38400;BME280;24180;42.676;23.320;2022-07-23T05:20:17;95124.09;;;21.53;100.00
38400;BME280;24180;42.676;23.320;2022-07-23T05:22:42;95120.66;;;21.59;100.00
38400;BME280;24180;42.676;23.320;2022-07-23T05:25:08;95130.59;;;21.77;100.00
38400;BME280;24180;42.676;23.320;2022-07-23T05:27:34;95126.34;;;21.89;100.00
38400;BME280;24180;42.676;23.320;2022-07-23T05:29:59;95123.72;;;21.89;100.00
38400;BME280;24180;42.676;23.320;2022-07-23T05:32:26;95127.34;;;22.08;100.00
38400;BME280;24180;42.676;23.320;2022-07-23T05:34:52;95127.75;;;22.18;100.00
38400;BME280;24180;42.676;23.320;2022-07-23T05:37:18;95127.94;;;22.29;100.00
38400;BME280;24180;42.676;23.320;2022-07-23T05:39:43;95122.88;;;22.34;100.00
38400;BME280;24180;42.676;23.320;2022-07-23T05:42:09;95128.94;;;22.42;100.00
38400;BME280;24180;42.676;23.320;2022-07-23T05:44:40;95135.97;;;22.61;100.00
38400;BME280;24180;42.676;23.320;2022-07-23T05:47:05;95131.91;;;22.71;100.00
38400;BME280;24180;42.676;23.320;2022-07-23T05:49:31;95126.78;;;22.83;100.00
38400;BME280;24180;42.676;23.320;2022-07-23T05:51:57;95137.28;;;22.96;100.00
38400;BME280;24180;42.676;23.320;2022-07-23T05:54:24;95134.16;;;23.12;100.00
38400;BME280;24180;42.676;23.320;2022-07-23T05:56:50;95132.03;;;23.27;100.00
38400;BME280;24180;42.676;23.320;2022-07-23T05:59:15;95130.09;;;23.48;100.00
38400;BME280;24180;42.676;23.320;2022-07-23T06:01:41;95135.56;;;23.53;100.00
38400;BME280;24180;42.676;23.320;2022-07-23T06:04:07;95134.28;;;23.62;100.00
38400;BME280;24180;42.676;23.320;2022-07-23T06:06:33;95116.16;;;23.65;100.00
38400;BME280;24180;42.676;23.320;2022-07-23T06:08:58;95115.03;;;23.79;100.00
38400;BME280;24180;42.676;23.320;2022-07-23T06:11:25;95112.09;;;23.88;100.00
38400;BME280;24180;42.676;23.320;2022-07-23T06:13:50;95112.00;;;24.01;100.00
38400;BME280;24180;42.676;23.320;2022-07-23T06:18:41;95111.41;;;24.23;100.00
38400;BME280;24180;42.676;23.320;2022-07-23T06:21:07;95117.69;;;24.47;100.00
38400;BME280;24180;42.676;23.320;2022-07-23T06:23:32;95115.16;;;24.52;100.00
38400;BME280;24180;42.676;23.320;2022-07-23T06:25:58;95120.19;;;24.42;100.00
38400;BME280;24180;42.676;23.320;2022-07-23T06:28:23;95113.78;;;24.50;100.00
38400;BME280;24180;42.676;23.320;2022-07-23T06:30:49;95117.06;;;24.63;100.00
38400;BME280;24180;42.676;23.320;2022-07-23T06:33:14;95107.66;;;24.67;100.00
38400;BME280;24180;42.676;23.320;2022-07-23T06:35:41;95103.47;;;24.78;100.00
38400;BME280;24180;42.676;23.320;2022-07-23T06:38:07;95118.63;;;24.89;100.00
38400;BME280;24180;42.676;23.320;2022-07-23T06:40:32;95107.84;;;24.91;97.59
38400;BME280;24180;42.676;23.320;2022-07-23T06:42:58;95121.13;;;25.02;97.91
38400;BME280;24180;42.676;23.320;2022-07-23T06:45:23;95115.66;;;25.15;98.33
38400;BME280;24180;42.676;23.320;2022-07-23T06:47:48;95113.97;;;25.33;94.42
38400;BME280;24180;42.676;23.320;2022-07-23T06:50:14;95111.72;;;25.48;92.12
38400;BME280;24180;42.676;23.320;2022-07-23T06:52:48;95108.09;;;25.60;90.77
38400;BME280;24180;42.676;23.320;2022-07-23T06:58:45;95106.53;;;25.83;89.38
38400;BME280;24180;42.676;23.320;2022-07-23T07:01:10;95113.81;;;25.99;85.82
38400;BME280;24180;42.676;23.320;2022-07-23T07:03:36;95107.00;;;25.91;83.52
38400;BME280;24180;42.676;23.320;2022-07-23T07:06:01;95113.13;;;26.03;81.64
38400;BME280;24180;42.676;23.320;2022-07-23T07:08:27;95114.72;;;26.16;83.17
38400;BME280;24180;42.676;23.320;2022-07-23T07:10:53;95108.31;;;26.24;80.08
38400;BME280;24180;42.676;23.320;2022-07-23T07:13:18;95093.16;;;26.24;77.33
38400;BME280;24180;42.676;23.320;2022-07-23T07:15:44;95094.22;;;26.23;75.12
38400;BME280;24180;42.676;23.320;2022-07-23T07:18:09;95101.59;;;26.33;74.32
38400;BME280;24180;42.676;23.320;2022-07-23T07:20:35;95092.81;;;26.44;73.22
38400;BME280;24180;42.676;23.320;2022-07-23T07:23:01;95085.28;;;26.52;73.69
38400;BME280;24180;42.676;23.320;2022-07-23T07:25:26;95098.28;;;26.77;72.94
38400;BME280;24180;42.676;23.320;2022-07-23T07:27:52;95098.72;;;26.97;71.85
38400;BME280;24180;42.676;23.320;2022-07-23T07:30:17;95088.56;;;26.94;71.85
38400;BME280;24180;42.676;23.320;2022-07-23T07:32:43;95079.06;;;26.98;71.91
38400;BME280;24180;42.676;23.320;2022-07-23T07:35:09;95091.69;;;27.20;70.85
38400;BME280;24180;42.676;23.320;2022-07-23T07:37:34;95089.44;;;27.28;68.26
38400;BME280;24180;42.676;23.320;2022-07-23T07:40:00;95081.44;;;27.40;69.53
38400;BME280;24180;42.676;23.320;2022-07-23T07:42:26;95086.53;;;27.58;65.36
38400;BME280;24180;42.676;23.320;2022-07-23T07:44:51;95080.34;;;27.69;61.43
38400;BME280;24180;42.676;23.320;2022-07-23T07:47:17;95081.69;;;27.88;57.58
38400;BME280;24180;42.676;23.320;2022-07-23T07:49:42;95080.25;;;27.81;58.71
38400;BME280;24180;42.676;23.320;2022-07-23T07:52:09;95086.47;;;27.86;59.87
38400;BME280;24180;42.676;23.320;2022-07-23T07:54:34;95076.63;;;28.04;58.31
38400;BME280;24180;42.676;23.320;2022-07-23T07:57:00;95074.28;;;28.24;57.45
38400;BME280;24180;42.676;23.320;2022-07-23T07:59:27;95069.25;;;28.44;55.94
38400;BME280;24180;42.676;23.320;2022-07-23T08:01:52;95070.91;;;28.50;57.07
38400;BME280;24180;42.676;23.320;2022-07-23T08:04:21;95067.38;;;28.66;54.02
38400;BME280;24180;42.676;23.320;2022-07-23T08:06:46;95066.16;;;28.74;50.93
38400;BME280;24180;42.676;23.320;2022-07-23T08:09:12;95070.53;;;28.63;52.23
38400;BME280;24180;42.676;23.320;2022-07-23T08:11:37;95077.34;;;28.71;53.01
38400;BME280;24180;42.676;23.320;2022-07-23T08:14:04;95068.03;;;28.73;53.22
38400;BME280;24180;42.676;23.320;2022-07-23T08:16:30;95060.66;;;28.80;52.48
38400;BME280;24180;42.676;23.320;2022-07-23T08:18:56;95068.13;;;29.05;51.29
38400;BME280;24180;42.676;23.320;2022-07-23T08:21:22;95068.53;;;29.19;51.48
38400;BME280;24180;42.676;23.320;2022-07-23T08:23:47;95065.50;;;29.32;51.78
38400;BME280;24180;42.676;23.320;2022-07-23T08:26:13;95061.06;;;29.21;49.86
38400;BME280;24180;42.676;23.320;2022-07-23T08:28:39;95067.53;;;29.25;50.24
38400;BME280;24180;42.676;23.320;2022-07-23T08:31:06;95050.63;;;29.36;50.26
38400;BME280;24180;42.676;23.320;2022-07-23T08:33:32;95061.00;;;29.64;51.17
38400;BME280;24180;42.676;23.320;2022-07-23T08:35:58;95051.44;;;29.68;49.59
38400;BME280;24180;42.676;23.320;2022-07-23T08:38:23;95059.44;;;29.73;49.00
38400;BME280;24180;42.676;23.320;2022-07-23T08:40:53;95062.47;;;29.82;48.58
38400;BME280;24180;42.676;23.320;2022-07-23T08:43:21;95056.72;;;29.95;48.07
38400;BME280;24180;42.676;23.320;2022-07-23T08:45:52;95054.78;;;30.28;48.31
38400;BME280;24180;42.676;23.320;2022-07-23T08:48:20;95050.91;;;30.45;48.11
38400;BME280;24180;42.676;23.320;2022-07-23T08:50:54;95042.53;;;30.32;47.92
38400;BME280;24180;42.676;23.320;2022-07-23T08:53:21;95048.25;;;30.50;47.46
38400;BME280;24180;42.676;23.320;2022-07-23T08:55:48;95047.81;;;30.74;47.08
38400;BME280;24180;42.676;23.320;2022-07-23T08:58:15;95043.59;;;30.88;47.07
38400;BME280;24180;42.676;23.320;2022-07-23T09:00:41;95056.69;;;30.84;47.18
38400;BME280;24180;42.676;23.320;2022-07-23T09:03:15;95051.41;;;30.99;45.62
38400;BME280;24180;42.676;23.320;2022-07-23T09:05:41;95044.50;;;31.19;46.01
38400;BME280;24180;42.676;23.320;2022-07-23T09:08:12;95045.59;;;31.28;46.00
38400;BME280;24180;42.676;23.320;2022-07-23T09:10:48;95041.59;;;31.25;45.59
38400;BME280;24180;42.676;23.320;2022-07-23T09:18:49;95043.75;;;31.48;41.16
38400;BME280;24180;42.676;23.320;2022-07-23T09:24:10;95037.91;;;31.77;40.30
38400;BME280;24180;42.676;23.320;2022-07-23T09:26:40;95045.13;;;31.96;39.31
38400;BME280;24180;42.676;23.320;2022-07-23T09:31:51;95036.00;;;31.82;38.54
38400;BME280;24180;42.676;23.320;2022-07-23T09:34:19;95036.28;;;32.11;38.29
38400;BME280;24180;42.676;23.320;2022-07-23T09:36:46;95032.78;;;32.26;37.47
38400;BME280;24180;42.676;23.320;2022-07-23T09:39:13;95029.56;;;32.29;37.50
38400;BME280;24180;42.676;23.320;2022-07-23T09:41:43;95020.16;;;32.26;36.53
38400;BME280;24180;42.676;23.320;2022-07-23T09:44:11;95025.69;;;32.55;35.49
38400;BME280;24180;42.676;23.320;2022-07-23T09:46:38;95014.72;;;32.62;34.39
38400;BME280;24180;42.676;23.320;2022-07-23T09:49:20;95022.13;;;32.85;34.52
38400;BME280;24180;42.676;23.320;2022-07-23T09:51:57;95014.00;;;33.00;33.58
38400;BME280;24180;42.676;23.320;2022-07-23T09:54:41;95010.19;;;33.06;32.42
38400;BME280;24180;42.676;23.320;2022-07-23T09:57:12;95014.13;;;33.29;33.43
38400;BME280;24180;42.676;23.320;2022-07-23T09:59:47;95009.00;;;33.32;29.09
38400;BME280;24180;42.676;23.320;2022-07-23T10:02:13;95002.94;;;33.51;30.13
38400;BME280;24180;42.676;23.320;2022-07-23T10:04:40;95006.75;;;33.78;31.09
38400;BME280;24180;42.676;23.320;2022-07-23T10:07:08;94995.69;;;34.14;30.53
38400;BME280;24180;42.676;23.320;2022-07-23T10:09:38;94994.47;;;34.54;30.04
38400;BME280;24180;42.676;23.320;2022-07-23T10:12:09;95006.47;;;34.85;28.34
38400;BME280;24180;42.676;23.320;2022-07-23T10:14:36;94998.59;;;35.07;29.30
38400;BME280;24180;42.676;23.320;2022-07-23T10:17:03;94995.22;;;35.02;27.87
38400;BME280;24180;42.676;23.320;2022-07-23T10:19:32;94978.78;;;35.22;26.85
38400;BME280;24180;42.676;23.320;2022-07-23T10:22:06;94995.31;;;35.85;27.89
38400;BME280;24180;42.676;23.320;2022-07-23T10:36:12;94986.56;;;43.87;18.23
38400;BME280;24180;42.676;23.320;2022-07-23T10:41:37;94977.34;;;45.36;17.51
38400;BME280;24180;42.676;23.320;2022-07-23T10:44:16;94976.16;;;45.91;17.50
38400;BME280;24180;42.676;23.320;2022-07-23T10:47:01;94964.22;;;47.46;16.24
38400;BME280;24180;42.676;23.320;2022-07-23T10:49:36;94967.25;;;48.45;15.19
38400;BME280;24180;42.676;23.320;2022-07-23T10:55:39;94959.94;;;44.90;16.64
38400;BME280;24180;42.676;23.320;2022-07-23T10:57:49;94960.41;;;46.07;16.13
38400;BME280;24180;42.676;23.320;2022-07-23T11:00:28;94951.03;;;46.50;15.85
38400;BME280;24180;42.676;23.320;2022-07-23T11:03:00;94947.16;;;46.77;14.59
38400;BME280;24180;42.676;23.320;2022-07-23T11:05:39;94955.59;;;46.65;13.02
38400;BME280;24180;42.676;23.320;2022-07-23T11:10:41;94941.38;;;48.49;12.90
38400;BME280;24180;42.676;23.320;2022-07-23T11:16:19;94945.44;;;50.67;11.33
38400;BME280;24180;42.676;23.320;2022-07-23T11:18:56;94922.09;;;51.25;10.94
38400;BME280;24180;42.676;23.320;2022-07-23T11:23:58;94939.16;;;52.99;11.15
38400;BME280;24180;42.676;23.320;2022-07-23T11:32:18;94924.75;;;54.63;9.88
38400;BME280;24180;42.676;23.320;2022-07-23T11:34:44;94931.28;;;52.98;10.56
38400;BME280;24180;42.676;23.320;2022-07-23T11:37:38;94926.97;;;52.49;11.09
38400;BME280;24180;42.676;23.320;2022-07-23T11:40:09;94925.94;;;52.80;10.63
38400;BME280;24180;42.676;23.320;2022-07-23T11:42:39;94913.25;;;51.76;10.90
38400;BME280;24180;42.676;23.320;2022-07-23T11:45:17;94918.88;;;51.51;10.94
38400;BME280;24180;42.676;23.320;2022-07-23T11:47:42;94909.63;;;51.86;10.93
38400;BME280;24180;42.676;23.320;2022-07-23T11:50:08;94911.59;;;51.85;10.69
38400;BME280;24180;42.676;23.320;2022-07-23T11:52:34;94910.31;;;52.59;10.21
38400;BME280;24180;42.676;23.320;2022-07-23T11:55:10;94904.72;;;54.02;9.46
38400;BME280;24180;42.676;23.320;2022-07-23T11:57:39;94904.41;;;54.46;9.25
38400;BME280;24180;42.676;23.320;2022-07-23T12:02:38;94892.75;;;54.08;9.25
38400;BME280;24180;42.676;23.320;2022-07-23T12:05:04;94909.25;;;54.42;9.27
38400;BME280;24180;42.676;23.320;2022-07-23T12:07:37;94905.94;;;55.17;8.27
38400;BME280;24180;42.676;23.320;2022-07-23T12:10:14;94908.69;;;55.96;7.97
38400;BME280;24180;42.676;23.320;2022-07-23T12:12:41;94907.09;;;52.16;9.05
38400;BME280;24180;42.676;23.320;2022-07-23T12:15:08;94883.19;;;50.70;9.64
38400;BME280;24180;42.676;23.320;2022-07-23T12:17:36;94888.34;;;50.53;9.88
38400;BME280;24180;42.676;23.320;2022-07-23T12:20:05;94889.34;;;51.37;9.53
38400;BME280;24180;42.676;23.320;2022-07-23T12:22:42;94889.66;;;53.76;8.33
38400;BME280;24180;42.676;23.320;2022-07-23T12:25:11;94881.63;;;51.80;9.26
38400;BME280;24180;42.676;23.320;2022-07-23T12:27:37;94883.94;;;51.09;9.81
38400;BME280;24180;42.676;23.320;2022-07-23T12:30:45;94885.41;;;48.24;11.21
38400;BME280;24180;42.676;23.320;2022-07-23T12:33:21;94877.69;;;47.93;11.15
38400;BME280;24180;42.676;23.320;2022-07-23T12:35:48;94871.69;;;49.61;10.08
38400;BME280;24180;42.676;23.320;2022-07-23T12:38:16;94880.84;;;50.33;10.13
38400;BME280;24180;42.676;23.320;2022-07-23T12:43:40;94869.97;;;53.67;8.60
38400;BME280;24180;42.676;23.320;2022-07-23T12:51:25;94874.97;;;54.33;8.06
38400;BME280;24180;42.676;23.320;2022-07-23T12:53:53;94860.09;;;55.09;7.84
38400;BME280;24180;42.676;23.320;2022-07-23T12:56:39;94856.88;;;55.11;7.82
38400;BME280;24180;42.676;23.320;2022-07-23T12:59:10;94856.19;;;55.26;7.84
38400;BME280;24180;42.676;23.320;2022-07-23T13:01:38;94864.41;;;56.21;7.32
38400;BME280;24180;42.676;23.320;2022-07-23T13:04:08;94863.06;;;57.32;7.55
38400;BME280;24180;42.676;23.320;2022-07-23T13:06:43;94858.44;;;57.42;7.85
38400;BME280;24180;42.676;23.320;2022-07-23T13:09:14;94856.16;;;57.37;7.72
38400;BME280;24180;42.676;23.320;2022-07-23T13:11:40;94854.25;;;56.76;7.50
38400;BME280;24180;42.676;23.320;2022-07-23T13:14:07;94848.63;;;57.50;7.73
38400;BME280;24180;42.676;23.320;2022-07-23T13:16:33;94857.91;;;58.23;7.08
38400;BME280;24180;42.676;23.320;2022-07-23T13:19:00;94855.88;;;55.96;6.83
38400;BME280;24180;42.676;23.320;2022-07-23T13:21:27;94854.91;;;54.22;7.24
38400;BME280;24180;42.676;23.320;2022-07-23T13:23:53;94858.28;;;54.56;7.09
38400;BME280;24180;42.676;23.320;2022-07-23T13:26:19;94845.34;;;54.92;6.98
38400;BME280;24180;42.676;23.320;2022-07-23T13:28:45;94845.84;;;52.21;8.07
38400;BME280;24180;42.676;23.320;2022-07-23T13:31:11;94845.75;;;54.48;8.08
38400;BME280;24180;42.676;23.320;2022-07-23T13:33:38;94838.84;;;54.79;8.09
38400;BME280;24180;42.676;23.320;2022-07-23T13:36:04;94841.16;;;55.04;7.27
38400;BME280;24180;42.676;23.320;2022-07-23T13:38:29;94841.16;;;54.14;7.70
38400;BME280;24180;42.676;23.320;2022-07-23T13:41:00;94852.31;;;52.49;8.13
38400;BME280;24180;42.676;23.320;2022-07-23T13:43:26;94842.53;;;51.09;8.33
38400;BME280;24180;42.676;23.320;2022-07-23T13:45:52;94842.94;;;51.11;8.35